Time;durP1;ratioP1;P1;durP2;ratioP2;P2;SDS_P1;SDS_P2;PMS_P1;PMS_P2;Temp;Humidity;BMP_temperature;BMP_pressure;BME280_temperature;BME280_humidity;BME280_pressure;Samples;Min_cycle;Max_cycle;Signal;HPM_P1;HPM_P2
2021/09/09 00:00:52;;;;;;;4.47;0.57;;;;;;;;;;5090247;28;20032;-53
2021/09/09 00:03:20;;;;;;;4.35;0.70;;;;;;;;;;5089455;28;20024;-44
2021/09/09 00:05:47;;;;;;;5.15;1.08;;;;;;;;;;5091302;28;20059;-51
2021/09/09 00:08:14;;;;;;;5.07;1.00;;;;;;;;;;5085875;28;20035;-48
2021/09/09 00:10:41;;;;;;;7.72;1.00;;;;;;;;;;5088254;28;20027;-44
2021/09/09 00:13:08;;;;;;;5.50;1.35;;;;;;;;;;5101205;28;20103;-48
2021/09/09 00:15:35;;;;;;;14.30;1.52;;;;;;;;;;5094843;28;20028;-48
2021/09/09 00:18:02;;;;;;;8.43;1.10;;;;;;;;;;5098156;28;20020;-51
2021/09/09 00:20:29;;;;;;;6.88;1.35;;;;;;;;;;5094606;28;20043;-46
2021/09/09 00:22:56;;;;;;;10.13;1.50;;;;;;;;;;5098703;28;20047;-45
2021/09/09 00:25:23;;;;;;;9.75;1.30;;;;;;;;;;5093664;28;20031;-48
2021/09/09 00:27:50;;;;;;;8.60;1.30;;;;;;;;;;5094247;28;20027;-43
2021/09/09 00:30:17;;;;;;;6.97;1.30;;;;;;;;;;5090209;28;20063;-43
2021/09/09 00:32:44;;;;;;;7.05;0.90;;;;;;;;;;5092798;28;20483;-42
2021/09/09 00:35:11;;;;;;;4.90;0.98;;;;;;;;;;5077920;28;20032;-44
2021/09/09 00:37:38;;;;;;;9.05;1.17;;;;;;;;;;5092183;28;20077;-44
2021/09/09 00:40:06;;;;;;;6.05;1.15;;;;;;;;;;5093918;28;20423;-44
2021/09/09 00:42:33;;;;;;;12.68;1.10;;;;;;;;;;5099599;28;20419;-44
2021/09/09 00:45:01;;;;;;;8.35;1.10;;;;;;;;;;5105204;28;20796;-45
2021/09/09 00:47:28;;;;;;;9.13;0.98;;;;;;;;;;5093675;28;20027;-46
2021/09/09 00:49:55;;;;;;;7.28;1.05;;;;;;;;;;5071883;28;20028;-44
2021/09/09 00:52:22;;;;;;;11.55;1.38;;;;;;;;;;5096089;28;20078;-46
2021/09/09 00:54:49;;;;;;;11.88;1.30;;;;;;;;;;5088684;28;20031;-46
2021/09/09 00:57:17;;;;;;;5.55;1.17;;;;;;;;;;5089642;28;20020;-46
2021/09/09 00:59:45;;;;;;;6.28;1.30;;;;;;;;;;5079347;28;20084;-44
2021/09/09 01:02:12;;;;;;;6.68;1.27;;;;;;;;;;5087744;28;20120;-44
2021/09/09 01:04:39;;;;;;;9.50;1.33;;;;;;;;;;5098499;28;20020;-45
2021/09/09 01:07:06;;;;;;;6.45;1.05;;;;;;;;;;5088706;28;20081;-45
2021/09/09 01:09:33;;;;;;;5.82;1.38;;;;;;;;;;5084685;28;20044;-46
2021/09/09 01:12:00;;;;;;;7.03;1.73;;;;;;;;;;5090765;28;20016;-46
2021/09/09 01:14:27;;;;;;;7.07;2.30;;;;;;;;;;5084340;28;20041;-46
2021/09/09 01:16:54;;;;;;;11.80;2.42;;;;;;;;;;5089768;28;20113;-46
2021/09/09 01:19:21;;;;;;;12.13;2.90;;;;;;;;;;5102775;28;20047;-46
2021/09/09 01:21:48;;;;;;;6.25;2.92;;;;;;;;;;5092952;28;20484;-45
2021/09/09 01:24:17;;;;;;;10.30;3.60;;;;;;;;;;5085323;28;20111;-42
2021/09/09 01:26:48;;;;;;;15.70;4.35;;;;;;;;;;5095641;28;20030;-42
2021/09/09 01:29:15;;;;;;;12.85;3.42;;;;;;;;;;5091907;28;20099;-42
2021/09/09 01:31:42;;;;;;;13.40;4.40;;;;;;;;;;5108139;28;20086;-44
2021/09/09 01:34:09;;;;;;;13.68;3.58;;;;;;;;;;5105297;28;20070;-45
2021/09/09 01:36:36;;;;;;;14.18;4.03;;;;;;;;;;5099041;28;20027;-44
2021/09/09 01:39:03;;;;;;;20.73;4.57;;;;;;;;;;5102955;28;20592;-45
2021/09/09 01:41:30;;;;;;;14.45;3.65;;;;;;;;;;5090934;28;20037;-44
2021/09/09 01:43:58;;;;;;;8.73;3.35;;;;;;;;;;5100918;28;20059;-47
2021/09/09 01:46:25;;;;;;;13.40;3.97;;;;;;;;;;5082214;28;20035;-45
2021/09/09 01:48:52;;;;;;;15.85;3.67;;;;;;;;;;5100240;28;20023;-43
2021/09/09 01:51:20;;;;;;;8.65;3.42;;;;;;;;;;5099663;28;20049;-46
2021/09/09 01:53:47;;;;;;;8.32;3.75;;;;;;;;;;5100246;28;20395;-44
2021/09/09 01:56:15;;;;;;;12.32;3.88;;;;;;;;;;5103693;28;20483;-43
2021/09/09 01:58:42;;;;;;;9.75;3.17;;;;;;;;;;5104035;28;20046;-45
2021/09/09 02:01:10;;;;;;;8.50;3.00;;;;;;;;;;5094937;28;20028;-45
2021/09/09 02:03:37;;;;;;;8.35;3.25;;;;;;;;;;5101673;28;20533;-49
2021/09/09 02:06:05;;;;;;;9.60;3.28;;;;;;;;;;5104368;28;20384;-46
2021/09/09 02:08:32;;;;;;;6.05;2.78;;;;;;;;;;5101998;28;20027;-44
2021/09/09 02:11:01;;;;;;;8.05;2.78;;;;;;;;;;5099163;28;20031;-47
2021/09/09 02:13:28;;;;;;;9.80;2.75;;;;;;;;;;5101384;28;20524;-49
2021/09/09 02:15:55;;;;;;;9.60;2.95;;;;;;;;;;5097612;28;20021;-50
2021/09/09 02:18:22;;;;;;;8.70;2.70;;;;;;;;;;5100722;28;20027;-44
2021/09/09 02:20:49;;;;;;;6.55;2.25;;;;;;;;;;5086192;28;20071;-45
2021/09/09 02:23:17;;;;;;;6.80;2.58;;;;;;;;;;5100373;28;20023;-44
2021/09/09 02:25:44;;;;;;;7.35;3.13;;;;;;;;;;5097728;28;20031;-46
2021/09/09 02:28:11;;;;;;;7.28;3.03;;;;;;;;;;5102653;28;20069;-49
2021/09/09 02:30:38;;;;;;;7.82;2.97;;;;;;;;;;5100933;28;20476;-48
2021/09/09 02:33:05;;;;;;;9.02;3.00;;;;;;;;;;5096932;28;20026;-47
2021/09/09 02:35:32;;;;;;;8.23;3.00;;;;;;;;;;5097628;28;20378;-47
2021/09/09 02:37:59;;;;;;;8.52;2.70;;;;;;;;;;5099439;28;20027;-46
2021/09/09 02:40:26;;;;;;;12.25;2.28;;;;;;;;;;5100950;28;20052;-44
2021/09/09 02:42:53;;;;;;;14.25;2.25;;;;;;;;;;5108544;28;20024;-43
2021/09/09 02:45:20;;;;;;;11.00;2.20;;;;;;;;;;5108296;28;20440;-46
2021/09/09 02:47:47;;;;;;;11.00;2.70;;;;;;;;;;5102559;28;20019;-49
2021/09/09 02:50:14;;;;;;;7.93;2.65;;;;;;;;;;5109084;28;20360;-47
2021/09/09 02:52:41;;;;;;;8.52;2.55;;;;;;;;;;5106357;28;20040;-49
2021/09/09 02:55:09;;;;;;;5.75;2.17;;;;;;;;;;5106386;28;20034;-47
2021/09/09 02:57:37;;;;;;;13.55;2.60;;;;;;;;;;5108836;28;20028;-43
2021/09/09 03:00:05;;;;;;;6.93;2.10;;;;;;;;;;5108326;28;20027;-45
2021/09/09 03:02:32;;;;;;;5.28;2.10;;;;;;;;;;5105166;28;20008;-43
2021/09/09 03:04:59;;;;;;;30.00;2.40;;;;;;;;;;5108959;28;20023;-45
2021/09/09 03:07:26;;;;;;;8.45;2.05;;;;;;;;;;5106853;28;20040;-46
2021/09/09 03:09:53;;;;;;;8.57;2.00;;;;;;;;;;5109942;28;20020;-45
2021/09/09 03:12:20;;;;;;;6.15;2.10;;;;;;;;;;5108122;28;20080;-46
2021/09/09 03:14:47;;;;;;;9.95;2.38;;;;;;;;;;5111958;28;20015;-47
2021/09/09 03:17:14;;;;;;;4.55;1.70;;;;;;;;;;5093020;28;20099;-46
2021/09/09 03:19:41;;;;;;;10.32;2.28;;;;;;;;;;5082280;28;20050;-46
2021/09/09 03:22:08;;;;;;;9.90;2.50;;;;;;;;;;5087396;28;20024;-47
2021/09/09 03:24:35;;;;;;;6.75;2.10;;;;;;;;;;5064820;28;20032;-45
2021/09/09 03:27:02;;;;;;;5.78;1.80;;;;;;;;;;5086836;28;20387;-47
2021/09/09 03:29:29;;;;;;;6.07;2.00;;;;;;;;;;5084220;28;20031;-47
2021/09/09 03:31:56;;;;;;;7.13;2.13;;;;;;;;;;5085205;28;20058;-47
2021/09/09 03:34:23;;;;;;;7.22;2.10;;;;;;;;;;5085988;28;20082;-48
2021/09/09 03:36:51;;;;;;;8.50;1.73;;;;;;;;;;5083354;28;20021;-45
2021/09/09 03:39:18;;;;;;;4.55;1.80;;;;;;;;;;5087056;28;20380;-48
2021/09/09 03:41:45;;;;;;;5.68;1.40;;;;;;;;;;5087470;28;20035;-46
2021/09/09 03:44:12;;;;;;;9.27;2.10;;;;;;;;;;5092863;28;20012;-47
2021/09/09 03:46:39;;;;;;;9.43;2.22;;;;;;;;;;5074597;28;20073;-51
2021/09/09 03:49:06;;;;;;;5.38;1.95;;;;;;;;;;5092743;28;20395;-48
2021/09/09 03:51:33;;;;;;;8.38;2.08;;;;;;;;;;5092529;28;20023;-49
2021/09/09 03:54:00;;;;;;;5.43;1.75;;;;;;;;;;5092549;28;20039;-46
2021/09/09 03:56:27;;;;;;;2.70;1.30;;;;;;;;;;5092743;28;20493;-48
2021/09/09 03:58:54;;;;;;;6.05;1.70;;;;;;;;;;5092634;28;20384;-45
2021/09/09 04:01:21;;;;;;;3.38;1.65;;;;;;;;;;5092416;28;20077;-46
2021/09/09 04:03:48;;;;;;;7.25;1.60;;;;;;;;;;5092463;28;20020;-47
2021/09/09 04:06:15;;;;;;;2.92;1.20;;;;;;;;;;5092397;28;20024;-46
2021/09/09 04:08:42;;;;;;;4.05;1.63;;;;;;;;;;5092486;28;20020;-47
2021/09/09 04:11:09;;;;;;;3.75;1.40;;;;;;;;;;5092282;28;20039;-45
2021/09/09 04:13:37;;;;;;;3.72;1.52;;;;;;;;;;5092599;28;20081;-45
2021/09/09 04:16:04;;;;;;;4.30;1.50;;;;;;;;;;5091888;28;20039;-47
2021/09/09 04:18:31;;;;;;;4.95;1.45;;;;;;;;;;5092340;28;20031;-47
2021/09/09 04:20:58;;;;;;;3.35;1.30;;;;;;;;;;5092271;28;20089;-46
2021/09/09 04:23:25;;;;;;;3.20;1.52;;;;;;;;;;5092033;28;20020;-46
2021/09/09 04:25:52;;;;;;;4.13;1.20;;;;;;;;;;5092120;28;20031;-45
2021/09/09 04:28:19;;;;;;;3.63;1.60;;;;;;;;;;5092253;28;20031;-47
2021/09/09 04:30:48;;;;;;;2.53;1.30;;;;;;;;;;5092232;28;20016;-46
2021/09/09 04:33:15;;;;;;;4.28;1.33;;;;;;;;;;5091767;28;20086;-47
2021/09/09 04:35:42;;;;;;;6.30;1.50;;;;;;;;;;5092126;28;20028;-48
2021/09/09 04:38:09;;;;;;;4.75;1.58;;;;;;;;;;5091667;28;20048;-47
2021/09/09 04:40:36;;;;;;;2.58;1.30;;;;;;;;;;5094339;28;20078;-52
2021/09/09 04:43:04;;;;;;;3.83;1.20;;;;;;;;;;5103735;28;20016;-49
2021/09/09 04:45:31;;;;;;;3.13;1.10;;;;;;;;;;5091819;28;20047;-48
2021/09/09 04:47:58;;;;;;;11.38;2.00;;;;;;;;;;5073762;28;20027;-47
2021/09/09 04:50:27;;;;;;;1.60;1.08;;;;;;;;;;5091969;28;20020;-48
2021/09/09 04:52:54;;;;;;;3.75;1.23;;;;;;;;;;5091036;28;20028;-46
2021/09/09 04:55:21;;;;;;;2.60;1.20;;;;;;;;;;5103851;28;20493;-47
2021/09/09 04:57:48;;;;;;;3.40;1.30;;;;;;;;;;5093929;28;20025;-47
2021/09/09 05:00:15;;;;;;;2.70;1.05;;;;;;;;;;5091763;28;20097;-44
2021/09/09 05:02:42;;;;;;;3.45;1.30;;;;;;;;;;5091573;28;20026;-45
2021/09/09 05:05:09;;;;;;;2.25;1.20;;;;;;;;;;5091802;28;20463;-47
2021/09/09 05:07:36;;;;;;;3.25;1.20;;;;;;;;;;5091624;28;20028;-47
2021/09/09 05:10:06;;;;;;;2.90;1.23;;;;;;;;;;5091755;28;20042;-46
2021/09/09 05:12:34;;;;;;;3.30;1.23;;;;;;;;;;5073971;28;20016;-51
2021/09/09 05:15:01;;;;;;;4.43;1.10;;;;;;;;;;5091734;28;20476;-47
2021/09/09 05:17:29;;;;;;;4.45;1.30;;;;;;;;;;5091684;28;20051;-47
2021/09/09 05:19:55;;;;;;;3.33;1.17;;;;;;;;;;5091367;28;20024;-51
2021/09/09 05:22:22;;;;;;;5.80;1.40;;;;;;;;;;5091679;28;20017;-50
2021/09/09 05:24:49;;;;;;;3.05;1.15;;;;;;;;;;5091363;28;20054;-50
2021/09/09 05:27:16;;;;;;;4.90;1.20;;;;;;;;;;5073406;28;20108;-49
2021/09/09 05:29:43;;;;;;;2.45;1.02;;;;;;;;;;5091455;28;20075;-49
2021/09/09 05:32:10;;;;;;;3.13;1.02;;;;;;;;;;5091416;28;20025;-49
2021/09/09 05:34:37;;;;;;;3.22;1.10;;;;;;;;;;5091344;28;20028;-49
2021/09/09 05:37:04;;;;;;;3.22;0.95;;;;;;;;;;5091448;28;20021;-46
2021/09/09 05:39:31;;;;;;;1.60;1.02;;;;;;;;;;5091233;28;20141;-50
2021/09/09 05:41:58;;;;;;;4.97;1.40;;;;;;;;;;5105198;28;20356;-51
2021/09/09 05:44:25;;;;;;;2.55;1.10;;;;;;;;;;5091489;28;20111;-50
2021/09/09 05:46:52;;;;;;;2.28;1.00;;;;;;;;;;5091379;28;20024;-48
2021/09/09 05:49:19;;;;;;;3.75;1.40;;;;;;;;;;5090943;28;20077;-50
2021/09/09 05:51:46;;;;;;;3.42;0.80;;;;;;;;;;5091580;28;20105;-48
2021/09/09 05:54:13;;;;;;;2.58;0.90;;;;;;;;;;5091072;28;20024;-47
2021/09/09 05:56:40;;;;;;;2.35;0.95;;;;;;;;;;5091327;28;20051;-46
2021/09/09 05:59:08;;;;;;;2.22;0.90;;;;;;;;;;5091307;28;20064;-47
2021/09/09 06:01:36;;;;;;;1.27;0.80;;;;;;;;;;5091328;28;20085;-48
2021/09/09 06:04:03;;;;;;;2.65;0.80;;;;;;;;;;5091208;28;20052;-48
2021/09/09 06:06:30;;;;;;;1.60;0.73;;;;;;;;;;5094823;28;20475;-46
2021/09/09 06:08:57;;;;;;;1.42;0.88;;;;;;;;;;5094789;28;20598;-52
2021/09/09 06:11:24;;;;;;;2.35;1.00;;;;;;;;;;5094622;28;20024;-46
2021/09/09 06:13:51;;;;;;;4.63;0.93;;;;;;;;;;5094905;28;20024;-49
2021/09/09 06:16:18;;;;;;;5.05;1.00;;;;;;;;;;5076423;28;20074;-47
2021/09/09 06:18:45;;;;;;;2.78;0.80;;;;;;;;;;5094417;28;20110;-45
2021/09/09 06:21:13;;;;;;;1.60;0.70;;;;;;;;;;5094528;28;20028;-46
2021/09/09 06:23:40;;;;;;;2.55;1.05;;;;;;;;;;5091920;28;20035;-46
2021/09/09 06:26:07;;;;;;;1.52;1.00;;;;;;;;;;5094150;28;20039;-44
2021/09/09 06:28:34;;;;;;;2.63;1.00;;;;;;;;;;5094453;28;20357;-46
2021/09/09 06:31:01;;;;;;;2.35;0.90;;;;;;;;;;5094216;28;20016;-48
2021/09/09 06:33:28;;;;;;;2.55;0.85;;;;;;;;;;5094226;28;20093;-46
2021/09/09 06:35:55;;;;;;;1.83;0.80;;;;;;;;;;5094285;28;20077;-49
2021/09/09 06:38:22;;;;;;;1.50;0.80;;;;;;;;;;5094148;28;20097;-45
2021/09/09 06:40:49;;;;;;;3.45;0.80;;;;;;;;;;5093963;28;20085;-44
2021/09/09 06:43:16;;;;;;;2.95;1.05;;;;;;;;;;5094134;28;20069;-46
2021/09/09 06:45:43;;;;;;;2.42;0.80;;;;;;;;;;5093967;28;20024;-44
2021/09/09 06:48:10;;;;;;;2.40;0.82;;;;;;;;;;5094185;28;20051;-46
2021/09/09 06:50:37;;;;;;;3.30;0.95;;;;;;;;;;5094161;28;20413;-48
2021/09/09 06:53:04;;;;;;;2.92;1.15;;;;;;;;;;5093896;28;20707;-45
2021/09/09 06:55:31;;;;;;;3.47;0.98;;;;;;;;;;5093825;28;20404;-46
2021/09/09 06:57:58;;;;;;;3.60;0.82;;;;;;;;;;5093758;28;20639;-45
2021/09/09 07:00:25;;;;;;;1.90;0.82;;;;;;;;;;5093657;28;20028;-46
2021/09/09 07:02:52;;;;;;;3.17;0.80;;;;;;;;;;5075543;28;20020;-46
2021/09/09 07:05:19;;;;;;;1.83;0.82;;;;;;;;;;5093588;28;20280;-44
2021/09/09 07:07:46;;;;;;;1.85;0.85;;;;;;;;;;5093840;28;20069;-46
2021/09/09 07:10:13;;;;;;;1.48;0.70;;;;;;;;;;5093331;28;20032;-45
2021/09/09 07:12:40;;;;;;;4.85;0.88;;;;;;;;;;5093549;28;20048;-47
2021/09/09 07:15:08;;;;;;;4.40;1.00;;;;;;;;;;5093032;28;20032;-47
2021/09/09 07:17:36;;;;;;;1.95;1.02;;;;;;;;;;5075174;28;20088;-47
2021/09/09 07:20:04;;;;;;;2.30;0.73;;;;;;;;;;5093313;28;20483;-52
2021/09/09 07:22:31;;;;;;;1.52;0.75;;;;;;;;;;5093241;28;20391;-48
2021/09/09 07:24:58;;;;;;;1.17;0.65;;;;;;;;;;5093215;28;20047;-49
2021/09/09 07:27:24;;;;;;;2.22;1.08;;;;;;;;;;5093070;28;20077;-51
2021/09/09 07:29:52;;;;;;;1.73;0.80;;;;;;;;;;5093271;28;20055;-48
2021/09/09 07:32:19;;;;;;;1.98;0.80;;;;;;;;;;5092772;28;20020;-49
2021/09/09 07:34:46;;;;;;;1.02;0.50;;;;;;;;;;5093260;28;20048;-46
2021/09/09 07:37:13;;;;;;;2.42;0.80;;;;;;;;;;5093142;28;20376;-46
2021/09/09 07:39:40;;;;;;;1.42;0.70;;;;;;;;;;5092564;28;20032;-47
2021/09/09 07:42:07;;;;;;;1.13;0.57;;;;;;;;;;5093059;28;20024;-47
2021/09/09 07:44:34;;;;;;;3.78;0.70;;;;;;;;;;5092792;28;20023;-46
2021/09/09 07:47:02;;;;;;;1.38;0.60;;;;;;;;;;5092884;28;20024;-47
2021/09/09 07:49:29;;;;;;;2.20;0.70;;;;;;;;;;5092733;28;20024;-47
2021/09/09 07:51:56;;;;;;;3.28;0.90;;;;;;;;;;5074801;28;20107;-48
2021/09/09 07:54:23;;;;;;;2.10;0.90;;;;;;;;;;5092654;28;20024;-46
2021/09/09 07:56:50;;;;;;;1.15;0.75;;;;;;;;;;5092749;28;20056;-48
2021/09/09 07:59:17;;;;;;;2.38;0.90;;;;;;;;;;5092558;28;20024;-48
2021/09/09 08:01:44;;;;;;;1.98;0.70;;;;;;;;;;5092413;28;20031;-48
2021/09/09 08:04:16;;;;;;;2.47;0.70;;;;;;;;;;5092569;28;20020;-51
2021/09/09 08:06:46;;;;;;;2.47;1.13;;;;;;;;;;5092437;28;20051;-50
2021/09/09 08:09:13;;;;;;;2.13;0.70;;;;;;;;;;5092711;28;20023;-51
2021/09/09 08:11:40;;;;;;;1.55;0.70;;;;;;;;;;5092391;28;21288;-52
2021/09/09 08:14:08;;;;;;;1.55;0.63;;;;;;;;;;5074149;28;20020;-45
2021/09/09 08:16:35;;;;;;;1.45;0.70;;;;;;;;;;5092429;28;20076;-47
2021/09/09 08:19:03;;;;;;;1.63;0.68;;;;;;;;;;5092221;28;20024;-49
2021/09/09 08:21:30;;;;;;;1.88;0.70;;;;;;;;;;5092320;28;20050;-48
2021/09/09 08:23:57;;;;;;;3.63;0.90;;;;;;;;;;5092200;28;20016;-49
2021/09/09 08:26:24;;;;;;;2.05;0.70;;;;;;;;;;5092158;28;20438;-47
2021/09/09 08:28:51;;;;;;;1.45;0.80;;;;;;;;;;5091295;28;20012;-47
2021/09/09 08:31:19;;;;;;;1.38;0.70;;;;;;;;;;5092176;28;20471;-46
2021/09/09 08:33:46;;;;;;;1.85;0.85;;;;;;;;;;5092253;28;20603;-49
2021/09/09 08:36:16;;;;;;;2.20;0.77;;;;;;;;;;5091866;28;20028;-49
2021/09/09 08:38:43;;;;;;;2.35;0.60;;;;;;;;;;5092116;28;20089;-47
2021/09/09 08:41:10;;;;;;;2.55;0.60;;;;;;;;;;5091774;28;20035;-47
2021/09/09 08:43:37;;;;;;;2.63;0.80;;;;;;;;;;5091768;28;20020;-48
2021/09/09 08:46:04;;;;;;;2.70;0.80;;;;;;;;;;5091979;28;20031;-49
2021/09/09 08:48:32;;;;;;;3.28;0.93;;;;;;;;;;5091820;28;20379;-48
2021/09/09 08:50:59;;;;;;;1.45;0.55;;;;;;;;;;5091644;28;20020;-51
2021/09/09 08:53:27;;;;;;;2.75;0.80;;;;;;;;;;5092000;28;20020;-46
2021/09/09 08:55:54;;;;;;;1.05;0.50;;;;;;;;;;5091804;28;20088;-48
2021/09/09 08:58:21;;;;;;;1.95;0.60;;;;;;;;;;5091622;28;20091;-53
2021/09/09 09:01:07;;;;;;;1.85;0.70;;;;;;;;;;5091814;28;20054;-47
2021/09/09 09:03:46;;;;;;;2.42;0.70;;;;;;;;;;5092010;28;20020;-47
2021/09/09 09:06:25;;;;;;;2.40;0.95;;;;;;;;;;5091736;28;20024;-47
2021/09/09 09:08:53;;;;;;;2.58;1.35;;;;;;;;;;5091551;28;20024;-49
2021/09/09 09:11:24;;;;;;;2.95;0.65;;;;;;;;;;5091711;28;20109;-48
2021/09/09 09:13:51;;;;;;;3.05;0.82;;;;;;;;;;5073536;28;20024;-49
2021/09/09 09:16:19;;;;;;;1.50;0.60;;;;;;;;;;5091843;28;20027;-52
2021/09/09 09:18:46;;;;;;;3.50;0.73;;;;;;;;;;5091445;28;20349;-52
2021/09/09 09:21:13;;;;;;;1.27;0.63;;;;;;;;;;5091406;28;20036;-47
2021/09/09 09:23:54;;;;;;;9.10;0.80;;;;;;;;;;5091459;28;20027;-50
2021/09/09 09:26:21;;;;;;;2.40;0.60;;;;;;;;;;5103217;28;20442;-50
2021/09/09 09:28:52;;;;;;;2.20;0.80;;;;;;;;;;5093345;28;20027;-52
2021/09/09 09:31:24;;;;;;;1.33;0.70;;;;;;;;;;5091462;28;20025;-49
2021/09/09 09:34:11;;;;;;;1.20;0.57;;;;;;;;;;5091443;28;20376;-47
2021/09/09 09:36:45;;;;;;;1.90;0.60;;;;;;;;;;5091516;28;20028;-48
2021/09/09 09:39:13;;;;;;;4.70;0.75;;;;;;;;;;5093027;28;20105;-49
2021/09/09 09:41:41;;;;;;;1.27;0.70;;;;;;;;;;5095295;28;20024;-49
2021/09/09 09:44:10;;;;;;;2.60;0.52;;;;;;;;;;5076820;28;20055;-46
2021/09/09 09:46:38;;;;;;;1.48;0.70;;;;;;;;;;5095201;28;20024;-51
2021/09/09 09:49:27;;;;;;;1.20;0.50;;;;;;;;;;5094997;28;20028;-51
2021/09/09 09:51:55;;;;;;;1.15;0.50;;;;;;;;;;5095058;28;20111;-51
2021/09/09 09:54:24;;;;;;;1.58;0.80;;;;;;;;;;5076629;28;20016;-52
2021/09/09 09:56:51;;;;;;;2.80;0.65;;;;;;;;;;5094790;28;20024;-51
2021/09/09 09:59:19;;;;;;;2.42;0.70;;;;;;;;;;5094849;28;20031;-48
2021/09/09 10:01:46;;;;;;;1.42;0.65;;;;;;;;;;5094550;28;20032;-48
2021/09/09 10:04:15;;;;;;;1.20;0.55;;;;;;;;;;5083316;28;20025;-48
2021/09/09 10:06:44;;;;;;;2.47;0.60;;;;;;;;;;5092619;28;20073;-48
2021/09/09 10:09:12;;;;;;;2.38;0.80;;;;;;;;;;5094712;28;20433;-47
2021/09/09 10:11:39;;;;;;;2.38;0.57;;;;;;;;;;5094298;28;20020;-48
2021/09/09 10:14:06;;;;;;;1.67;0.50;;;;;;;;;;5076918;28;20048;-48
2021/09/09 10:16:38;;;;;;;2.17;0.80;;;;;;;;;;5094519;28;20035;-49
2021/09/09 10:19:05;;;;;;;3.90;0.80;;;;;;;;;;5094355;28;20081;-49
2021/09/09 10:21:40;;;;;;;3.55;0.82;;;;;;;;;;5094463;28;20031;-45
2021/09/09 10:24:11;;;;;;;2.10;0.57;;;;;;;;;;5094544;28;20020;-46
2021/09/09 10:26:38;;;;;;;1.23;0.60;;;;;;;;;;5094397;28;20066;-46
2021/09/09 10:29:08;;;;;;;2.10;0.50;;;;;;;;;;5094473;28;20074;-47
2021/09/09 10:31:40;;;;;;;1.60;0.60;;;;;;;;;;5094367;28;20375;-48
2021/09/09 10:34:08;;;;;;;1.13;0.55;;;;;;;;;;5094339;28;20048;-48
2021/09/09 10:36:46;;;;;;;1.60;0.60;;;;;;;;;;5094355;28;20714;-48
2021/09/09 10:39:14;;;;;;;1.40;0.60;;;;;;;;;;5093711;28;20044;-49
2021/09/09 10:41:41;;;;;;;1.90;0.70;;;;;;;;;;5094140;28;20107;-48
2021/09/09 10:44:09;;;;;;;2.38;0.63;;;;;;;;;;5094070;28;20020;-44
2021/09/09 10:46:40;;;;;;;1.50;0.52;;;;;;;;;;5094170;28;20383;-47
2021/09/09 10:49:18;;;;;;;2.03;0.63;;;;;;;;;;5094022;28;20103;-47
2021/09/09 10:52:08;;;;;;;3.28;0.90;;;;;;;;;;5093115;28;20028;-46
2021/09/09 10:54:54;;;;;;;1.55;0.70;;;;;;;;;;5088455;28;20044;-46
2021/09/09 10:57:21;;;;;;;1.83;0.70;;;;;;;;;;5093811;28;20020;-46
2021/09/09 10:59:50;;;;;;;1.63;0.60;;;;;;;;;;5093667;28;20111;-48
2021/09/09 11:02:17;;;;;;;1.73;0.52;;;;;;;;;;5093536;28;20031;-48
2021/09/09 11:04:51;;;;;;;1.60;0.70;;;;;;;;;;5093484;28;20025;-48
2021/09/09 11:07:23;;;;;;;0.95;0.57;;;;;;;;;;5093857;28;20054;-46
2021/09/09 11:10:00;;;;;;;4.60;0.90;;;;;;;;;;5093568;28;20065;-48
2021/09/09 11:12:27;;;;;;;2.03;0.70;;;;;;;;;;5093407;28;20535;-46
2021/09/09 11:15:01;;;;;;;1.05;0.50;;;;;;;;;;5093234;28;20099;-46
2021/09/09 11:17:29;;;;;;;1.73;0.55;;;;;;;;;;5093655;28;20027;-48
2021/09/09 11:20:03;;;;;;;2.45;0.75;;;;;;;;;;5093228;28;20073;-46
2021/09/09 11:22:30;;;;;;;2.75;0.90;;;;;;;;;;5093221;28;20020;-46
2021/09/09 11:24:58;;;;;;;1.48;0.57;;;;;;;;;;5093032;28;20024;-45
2021/09/09 11:27:34;;;;;;;1.75;0.52;;;;;;;;;;5093167;28;20099;-47
2021/09/09 11:30:02;;;;;;;0.88;0.55;;;;;;;;;;5093336;28;20012;-46
2021/09/09 11:32:30;;;;;;;3.65;0.80;;;;;;;;;;5092925;28;20071;-47
2021/09/09 11:35:07;;;;;;;2.85;0.90;;;;;;;;;;5093130;28;20020;-48
2021/09/09 11:37:54;;;;;;;2.55;0.57;;;;;;;;;;5092868;28;20468;-47
2021/09/09 11:40:21;;;;;;;2.05;0.50;;;;;;;;;;5092980;28;20032;-48
2021/09/09 11:42:48;;;;;;;1.67;0.60;;;;;;;;;;5092704;28;20081;-48
2021/09/09 11:45:15;;;;;;;0.90;0.52;;;;;;;;;;5092958;28;20023;-49
2021/09/09 11:47:42;;;;;;;1.75;0.68;;;;;;;;;;5092589;28;20376;-48
2021/09/09 11:50:09;;;;;;;4.20;0.80;;;;;;;;;;5109349;28;20081;-49
2021/09/09 11:52:36;;;;;;;1.95;0.63;;;;;;;;;;5109369;28;20027;-52
2021/09/09 11:55:11;;;;;;;2.75;0.60;;;;;;;;;;5080252;28;20416;-49
2021/09/09 11:57:42;;;;;;;1.92;0.60;;;;;;;;;;5102919;28;20089;-48
2021/09/09 12:00:09;;;;;;;18.65;1.23;;;;;;;;;;5094662;28;20494;-51
2021/09/09 12:02:36;;;;;;;17.85;1.60;;;;;;;;;;5099682;28;20481;-49
2021/09/09 12:05:10;;;;;;;4.80;1.42;;;;;;;;;;5092139;28;20023;-59
2021/09/09 12:07:38;;;;;;;19.38;1.20;;;;;;;;;;5097661;28;20015;-54
2021/09/09 12:10:07;;;;;;;4.15;1.20;;;;;;;;;;5104343;28;20043;-43
2021/09/09 12:12:35;;;;;;;5.15;1.15;;;;;;;;;;5090567;28;20108;-45
2021/09/09 12:15:04;;;;;;;4.30;1.05;;;;;;;;;;5087635;28;20078;-40
2021/09/09 12:17:31;;;;;;;7.75;1.05;;;;;;;;;;5085046;28;20052;-42
2021/09/09 12:20:06;;;;;;;6.07;1.30;;;;;;;;;;5092761;28;20048;-41
2021/09/09 12:23:05;;;;;;;5.78;1.05;;;;;;;;;;5088387;28;20027;-42
2021/09/09 12:25:36;;;;;;;4.63;0.65;;;;;;;;;;5045844;28;20403;-39
2021/09/09 12:28:07;;;;;;;4.15;0.90;;;;;;;;;;5089943;28;20046;-42
2021/09/09 12:30:37;;;;;;;2.45;0.80;;;;;;;;;;5091210;28;20022;-41
2021/09/09 12:33:18;;;;;;;4.97;0.82;;;;;;;;;;5091147;28;20008;-42
2021/09/09 12:36:03;;;;;;;5.10;1.10;;;;;;;;;;5078092;28;20024;-42
2021/09/09 12:38:44;;;;;;;5.75;0.80;;;;;;;;;;5084854;28;20074;-47
2021/09/09 12:41:31;;;;;;;4.80;0.77;;;;;;;;;;5103253;28;20036;-47
2021/09/09 12:44:02;;;;;;;6.80;0.80;;;;;;;;;;5093792;28;20044;-46
2021/09/09 12:46:34;;;;;;;3.78;0.88;;;;;;;;;;5090387;28;20023;-46
2021/09/09 12:49:23;;;;;;;2.10;0.75;;;;;;;;;;5089877;28;20020;-48
2021/09/09 12:51:51;;;;;;;3.13;1.08;;;;;;;;;;5079356;28;20028;-45
2021/09/09 12:54:19;;;;;;;4.47;1.13;;;;;;;;;;5090559;28;20023;-46
2021/09/09 12:56:49;;;;;;;2.92;0.88;;;;;;;;;;5076196;28;20379;-41
2021/09/09 12:59:17;;;;;;;3.33;0.80;;;;;;;;;;5089634;28;20020;-40
2021/09/09 13:01:44;;;;;;;2.80;0.70;;;;;;;;;;5090112;28;20024;-42
2021/09/09 13:04:11;;;;;;;7.63;0.90;;;;;;;;;;5093467;28;20028;-41
2021/09/09 13:06:38;;;;;;;3.92;0.90;;;;;;;;;;5091345;28;20031;-41
2021/09/09 13:09:05;;;;;;;7.30;1.20;;;;;;;;;;5095675;28;20096;-42
2021/09/09 13:11:32;;;;;;;5.95;1.08;;;;;;;;;;5093470;28;20035;-42
2021/09/09 13:13:59;;;;;;;4.25;1.10;;;;;;;;;;5092670;28;20016;-40
2021/09/09 13:16:26;;;;;;;6.60;1.15;;;;;;;;;;5094321;28;20564;-42
2021/09/09 13:18:53;;;;;;;5.32;0.90;;;;;;;;;;5094901;28;20077;-41
2021/09/09 13:21:28;;;;;;;3.67;0.90;;;;;;;;;;5066494;28;20551;-41
2021/09/09 13:23:55;;;;;;;4.30;0.90;;;;;;;;;;5094638;28;20040;-43
2021/09/09 13:26:22;;;;;;;3.75;0.70;;;;;;;;;;5094057;28;20382;-44
2021/09/09 13:28:49;;;;;;;7.28;1.05;;;;;;;;;;5093907;28;20475;-46
2021/09/09 13:31:21;;;;;;;3.72;0.65;;;;;;;;;;5096035;28;20111;-43
2021/09/09 13:33:48;;;;;;;5.57;0.95;;;;;;;;;;5111441;28;20019;-45
2021/09/09 13:36:15;;;;;;;8.15;1.17;;;;;;;;;;5101040;28;20020;-44
2021/09/09 13:38:42;;;;;;;3.50;0.88;;;;;;;;;;5093885;28;20040;-49
2021/09/09 13:41:10;;;;;;;3.67;1.15;;;;;;;;;;5094080;28;20032;-45
2021/09/09 13:43:37;;;;;;;4.57;0.90;;;;;;;;;;5092994;28;20043;-45
2021/09/09 13:46:05;;;;;;;5.20;0.90;;;;;;;;;;5094293;28;20027;-44
2021/09/09 13:48:32;;;;;;;8.48;1.40;;;;;;;;;;5094437;28;20497;-43
2021/09/09 13:51:00;;;;;;;6.47;1.15;;;;;;;;;;5094189;28;20038;-47
2021/09/09 13:53:27;;;;;;;6.90;0.98;;;;;;;;;;5093072;28;20383;-47
2021/09/09 13:55:55;;;;;;;6.18;0.68;;;;;;;;;;5097778;28;20051;-41
2021/09/09 13:58:22;;;;;;;6.38;1.15;;;;;;;;;;5104452;28;20090;-42
2021/09/09 14:00:49;;;;;;;4.03;0.73;;;;;;;;;;5102747;28;20646;-46
2021/09/09 14:03:16;;;;;;;6.20;1.00;;;;;;;;;;5092935;28;20039;-40
2021/09/09 14:05:43;;;;;;;4.20;1.05;;;;;;;;;;5093407;28;20122;-50
2021/09/09 14:08:10;;;;;;;5.80;0.82;;;;;;;;;;5103500;28;20016;-48
2021/09/09 14:10:37;;;;;;;4.70;0.70;;;;;;;;;;5108099;28;20058;-48
2021/09/09 14:13:09;;;;;;;2.50;0.80;;;;;;;;;;5107291;28;20008;-46
2021/09/09 14:15:36;;;;;;;4.90;0.93;;;;;;;;;;5107455;28;20084;-42
2021/09/09 14:18:03;;;;;;;4.55;0.88;;;;;;;;;;5100493;28;20016;-47
2021/09/09 14:20:31;;;;;;;3.03;0.80;;;;;;;;;;5093160;28;20416;-51
2021/09/09 14:22:58;;;;;;;4.07;1.00;;;;;;;;;;5098573;28;20008;-56
2021/09/09 14:25:25;;;;;;;6.50;0.90;;;;;;;;;;5099792;28;20494;-45
2021/09/09 14:27:52;;;;;;;5.32;1.40;;;;;;;;;;5092785;28;20051;-43
2021/09/09 14:30:19;;;;;;;4.90;0.98;;;;;;;;;;5092887;28;20027;-42
2021/09/09 14:32:46;;;;;;;3.88;0.90;;;;;;;;;;5092986;28;20015;-43
2021/09/09 14:35:13;;;;;;;5.00;1.30;;;;;;;;;;5098464;28;20103;-41
2021/09/09 14:37:40;;;;;;;5.63;1.13;;;;;;;;;;5080433;28;20459;-41
2021/09/09 14:40:08;;;;;;;2.50;0.70;;;;;;;;;;5099841;28;20446;-42
2021/09/09 14:42:35;;;;;;;4.88;0.98;;;;;;;;;;5092160;28;20020;-47
2021/09/09 14:45:02;;;;;;;11.40;1.42;;;;;;;;;;5093345;28;20027;-45
2021/09/09 14:47:29;;;;;;;9.18;1.30;;;;;;;;;;5090068;28;20024;-45
2021/09/09 14:49:56;;;;;;;8.32;1.50;;;;;;;;;;5101070;28;20464;-46